Latest Weather Observations for PORTABLE RFSNSW02

IDN60801

Issued at 12:53 pm EDT Thursday 20 January 2022 (issued every 10 minutes, with the page automatically refreshed every 10 minutes)

About weather observations | Map of weather stations | Latest weather observations for NSW | Other Formats
Station Details ID: 250042 Name: PORTABLE RFSNSW02 Lat: -35.27 Lon: 148.24 Height: 267.0 m

Portable automatic weather stations (PAWS) are operated by other organisations, such as Fire and Emergency Services, and are included here by agreement. Portable stations may be deployed to a location for a short period and their location may be subject to change without notice. Wind observations from these stations are provided from heights of either three (3) or ten (10) metres above ground level (AGL).

Data from the previous 72 hours. | See also: Recent months for locations in New South Wales
Date/Time
EDT
Temp
°C
App
Temp
°C
Dew
Point
°C
Rel
Hum
%
Delta-T
°C
Wind Press
QNH
hPa
Press
MSL
hPa
Rain since
9am
mm
Dir  Spd
km/h
Gust
km/h
Spd
kts
Gust
kts
20/12:40pm 25.4 20.9 8.6 34 9.2 E 22 26 12 14 - - 0.0
20/12:30pm 25.6 21.6 9.1 35 9.1 E 20 26 11 14 - - 0.0
20/12:20pm 25.5 21.3 8.2 33 9.4 ENE 20 26 11 14 - - 0.0
20/12:10pm 25.7 23.1 10.6 38 8.5 E 15 19 8 10 - - 0.0
20/12:00pm 25.3 22.1 8.6 34 9.1 E 15 20 8 11 - - 0.0
20/11:50am 25.0 21.3 8.1 34 9.1 E 17 26 9 14 - - 0.0
20/11:40am 24.8 20.6 8.3 35 8.9 E 20 24 11 13 - - 0.0
20/11:30am 24.7 21.2 8.9 36 8.6 E 17 20 9 11 - - 0.0
20/11:20am 24.6 21.4 8.5 36 8.7 E 15 19 8 10 - - 0.0
20/11:10am 23.9 20.7 8.6 37 8.3 - 15 20 8 11 - - 0.0
20/11:00am 23.8 20.9 9.6 40 7.8 E 15 19 8 10 - - 0.0
20/10:50am 23.9 21.0 8.1 36 8.5 E 13 17 7 9 - - 0.0
20/10:40am 23.8 21.4 8.5 37 8.3 ENE 11 19 6 10 - - 0.0
20/10:30am 23.5 21.0 8.2 37 8.2 E 11 15 6 8 - - 0.0
20/10:20am 22.9 20.7 7.7 37 8.1 ESE 9 13 5 7 - - 0.0
20/10:10am 22.9 20.3 7.9 38 8.0 E 11 15 6 8 - - 0.0
20/10:00am 22.3 19.2 8.8 42 7.3 ESE 15 20 8 11 - - 0.0
20/09:50am 22.2 18.6 8.2 40 7.5 E 17 22 9 12 - - 0.0
20/09:40am 21.9 18.4 8.6 42 7.1 E 17 20 9 11 - - 0.0
20/09:30am 21.4 17.1 7.7 41 7.2 ESE 20 24 11 13 - - 0.0
20/09:20am 21.3 16.9 7.2 40 7.3 ESE 20 24 11 13 - - 0.0
20/09:10am 21.1 16.9 7.5 41 7.1 ESE 19 22 10 12 - - 0.0
20/09:00am 21.0 16.9 7.7 42 7.0 - 19 26 10 14 - - 0.0
20/08:50am 20.8 16.9 7.1 41 7.1 E 17 20 9 11 - - 0.0
20/08:40am 20.6 16.8 7.6 43 6.8 E 17 22 9 12 - - 0.0
20/08:30am 20.5 18.0 8.1 44 6.5 ESE 11 20 6 11 - - 0.0
20/08:20am 20.1 16.7 7.7 44 6.5 ESE 15 19 8 10 - - 0.0
20/08:10am 20.2 17.5 7.2 43 6.7 E 11 19 6 10 - - 0.0
20/08:00am 20.0 17.3 7.5 44 6.5 E 11 17 6 9 - - 0.0
20/07:50am 19.8 17.8 7.3 44 6.5 ESE 7 13 4 7 - - 0.0
20/07:40am 19.7 18.8 7.6 45 6.3 SE 2 4 1 2 - - 0.0
20/07:30am 19.0 17.3 7.5 47 5.9 ESE 6 9 3 5 - - 0.0
20/07:20am 18.6 16.8 7.2 47 5.8 E 6 7 3 4 - - 0.0
20/07:10am 17.9 17.0 7.6 51 5.3 ESE 2 4 1 2 - - 0.0
20/07:00am 17.4 15.6 7.0 50 5.3 E 6 7 3 4 - - 0.0
20/06:50am 16.4 14.5 6.7 52 4.8 E 6 6 3 3 - - 0.0
20/06:40am 15.6 13.5 6.5 54 4.5 ESE 7 9 4 5 - - 0.0
20/06:30am 15.4 13.3 6.6 55 4.3 SE 7 9 4 5 - - 0.0
20/06:20am 15.4 13.4 7.0 57 4.2 ESE 7 7 4 4 - - 0.0
20/06:10am 15.6 13.7 6.6 55 4.5 ESE 6 9 3 5 - - 0.0
20/06:00am 15.3 14.0 6.2 54 4.5 S 2 4 1 2 - - 0.0
20/05:50am 15.0 13.5 6.7 57 4.1 WSW 4 6 2 3 - - 0.0
20/05:40am 14.4 13.0 7.3 62 3.5 S 4 6 2 3 - - 0.0
20/05:30am 15.0 13.6 7.1 59 3.9 SSE 4 6 2 3 - - 0.0
20/05:20am 15.0 13.2 7.2 59 3.9 S 6 7 3 4 - - 0.0
20/05:10am 14.9 13.5 7.1 59 3.9 SSW 4 6 2 3 - - 0.0
20/05:00am 15.1 13.7 7.4 60 3.9 S 4 6 2 3 - - 0.0
20/04:50am 15.3 13.5 7.0 57 4.1 SE 6 7 3 4 - - 0.0
20/04:40am 14.7 13.2 7.0 60 3.8 SE 4 6 2 3 - - 0.0
20/04:30am 14.5 13.5 7.2 61 3.6 S 2 4 1 2 - - 0.0
20/04:20am 14.6 13.1 6.9 60 3.8 SSW 4 4 2 2 - - 0.0
20/04:10am 14.4 13.4 7.5 63 3.5 SW 2 4 1 2 - - 0.0
20/04:00am 14.7 13.8 7.6 62 3.6 SSE 2 2 1 1 - - 0.0
20/03:50am 14.8 13.4 7.1 60 3.8 ESE 4 7 2 4 - - 0.0
20/03:40am 14.3 12.3 7.3 63 3.5 S 7 11 4 6 - - 0.0
20/03:30am 13.7 11.9 8.1 69 2.8 SSW 7 9 4 5 - - 0.0
20/03:20am 13.8 12.2 7.8 67 3.0 SSW 6 7 3 4 - - 0.0
20/03:10am 13.1 11.4 7.5 69 2.8 SSW 6 11 3 6 - - 0.0
20/03:00am 13.1 12.2 7.7 70 2.7 NNW 2 4 1 2 - - 0.0
20/02:50am 13.0 11.7 7.7 70 2.6 NW 4 6 2 3 - - 0.0
20/02:40am 13.2 12.4 8.1 71 2.6 NNW 2 4 1 2 - - 0.0
20/02:30am 13.0 12.1 7.6 70 2.7 W 2 4 1 2 - - 0.0
20/02:20am 13.0 12.1 7.8 70 2.6 NNE 2 6 1 3 - - 0.0
20/02:10am 13.0 12.1 7.8 70 2.6 NNE 2 2 1 1 - - 0.0
20/02:00am 13.2 12.3 7.6 69 2.8 N 2 4 1 2 - - 0.0
20/01:50am 13.3 12.0 7.8 69 2.7 NNE 4 6 2 3 - - 0.0
20/01:40am 13.0 12.1 7.7 70 2.6 N 2 4 1 2 - - 0.0
20/01:30am 12.5 11.6 7.8 73 2.3 NE 2 2 1 1 - - 0.0
20/01:20am 12.5 11.8 8.4 76 2.1 NNW 2 4 1 2 - - 0.0
20/01:10am 12.5 11.6 7.9 73 2.3 N 2 2 1 1 - - 0.0
20/01:00am 12.6 11.8 8.2 74 2.2 NNW 2 4 1 2 - - 0.0
20/12:50am 13.0 12.2 8.1 72 2.5 NNW 2 2 1 1 - - 0.0
20/12:40am 13.2 12.5 8.4 72 2.4 NNW 2 4 1 2 - - 0.0
20/12:30am 13.6 13.0 8.8 73 2.5 N 2 4 1 2 - - 0.0
20/12:20am 13.8 12.9 7.9 67 3.0 SSE 2 2 1 1 - - 0.0
20/12:10am 13.9 13.1 8.0 67 3.0 NNE 2 4 1 2 - - 0.0
20/12:00am 13.9 13.0 7.8 66 3.1 N 2 4 1 2 - - 0.0
 
Date/Time
EDT
Temp
°C
App
Temp
°C
Dew
Point
°C
Rel
Hum
%
Delta-T
°C
Wind Press
QNH
hPa
Press
MSL
hPa
Rain since
9am
mm
Dir  Spd
km/h
Gust
km/h
Spd
kts
Gust
kts
19/11:50pm 14.1 13.3 8.1 67 3.0 E 2 2 1 1 - - 0.0
19/11:40pm 14.1 13.2 7.9 66 3.1 NE 2 2 1 1 - - 0.0
19/11:30pm 14.5 13.8 8.6 67 3.0 E 2 6 1 3 - - 0.0
19/11:20pm 15.0 14.1 9.4 69 2.9 N 4 4 2 2 - - 0.0
19/11:10pm 15.2 13.9 7.6 60 3.8 E 4 6 2 3 - - 0.0
19/11:00pm 16.3 14.7 8.0 58 4.2 - 6 6 3 3 - - 0.0
19/10:50pm 17.3 15.6 7.6 53 5.0 ESE 6 9 3 5 - - 0.0
19/10:40pm 17.8 16.0 7.0 49 5.5 E 6 7 3 4 - - 0.0
19/10:30pm 18.2 15.8 7.1 48 5.6 ESE 9 19 5 10 - - 0.0
19/10:20pm 18.1 15.2 6.4 46 5.9 SE 11 15 6 8 - - 0.0
19/10:10pm 18.1 15.4 7.4 49 5.5 SE 11 13 6 7 - - 0.0
19/10:00pm 18.7 15.6 7.4 47 5.8 SE 13 17 7 9 - - 0.0
19/09:50pm 19.0 16.3 7.2 46 6.0 SSE 11 15 6 8 - - 0.0
19/09:40pm 19.4 15.6 7.5 46 6.1 SSE 17 22 9 12 - - 0.0
19/09:30pm 19.5 15.3 7.5 45 6.2 SE 19 20 10 11 - - 0.0
19/09:20pm 19.6 15.9 7.9 46 6.1 SE 17 20 9 11 - - 0.0
19/09:10pm 20.4 16.0 7.6 43 6.7 SE 20 24 11 13 - - 0.0
19/09:00pm 20.8 17.1 8.1 44 6.7 ESE 17 20 9 11 - - 0.0
19/08:50pm 21.2 17.2 8.3 43 6.8 ESE 19 22 10 12 - - 0.0
19/08:40pm 21.5 17.9 8.3 42 7.0 ESE 17 20 9 11 - - 0.0
19/08:30pm 21.8 19.1 8.8 43 7.0 ESE 13 15 7 8 - - 0.0
19/08:20pm 22.3 19.2 8.7 41 7.3 - 15 19 8 10 - - 0.0
19/08:10pm 22.9 19.8 8.9 40 7.6 - 15 20 8 11 - - 0.0
19/08:00pm 23.5 20.5 9.1 40 7.8 E 15 19 8 10 - - 0.0
19/07:50pm 24.0 20.7 9.5 39 8.0 E 17 20 9 11 - - 0.0
19/07:40pm 24.7 22.2 9.6 38 8.4 ENE 13 17 7 9 - - 0.0
19/07:30pm 24.9 21.9 9.3 37 8.6 ENE 15 20 8 11 - - 0.0
19/07:20pm 25.3 22.4 9.5 36 8.8 ENE 15 20 8 11 - - 0.0
19/07:10pm 25.5 22.6 9.8 37 8.8 ENE 15 20 8 11 - - 0.0
19/07:00pm 25.8 23.3 9.8 36 8.9 ENE 13 17 7 9 - - 0.0
19/06:50pm 25.9 22.2 9.3 35 9.2 E 19 24 10 13 - - 0.0
19/06:40pm 26.1 22.4 10.0 36 9.0 E 20 22 11 12 - - 0.0
19/06:30pm 26.5 23.3 10.0 35 9.3 E 17 22 9 12 - - 0.0
19/06:20pm 26.6 23.5 10.2 35 9.3 E 17 22 9 12 - - 0.0
19/06:10pm 26.9 23.7 9.9 34 9.6 E 17 22 9 12 - - 0.0
19/06:00pm 26.9 23.4 10.1 34 9.5 ENE 19 24 10 13 - - 0.0
19/05:50pm 27.1 24.1 10.6 35 9.4 E 17 22 9 12 - - 0.0
19/05:40pm 27.3 23.5 9.8 33 9.8 E 20 24 11 13 - - 0.0
19/05:30pm 27.3 23.9 10.5 35 9.6 ENE 19 22 10 12 - - 0.0
19/05:20pm 27.3 23.9 10.5 35 9.6 ENE 19 26 10 14 - - 0.0
19/05:10pm 27.4 23.8 10.6 35 9.6 E 20 28 11 15 - - 0.0
19/05:00pm 27.5 24.1 11.3 36 9.4 E 20 26 11 14 - - 0.0
19/04:50pm 27.5 25.0 10.9 35 9.5 ENE 15 22 8 12 - - 0.0
19/04:40pm 27.2 24.7 12.2 39 8.8 ENE 17 20 9 11 - - 0.0
19/04:30pm 27.7 24.7 11.8 37 9.3 E 19 26 10 14 - - 0.0
19/04:20pm 27.7 25.2 12.2 38 9.1 E 17 22 9 12 - - 0.0
19/04:10pm 27.8 25.2 11.9 37 9.3 E 17 22 9 12 - - 0.0
19/04:00pm 28.0 25.6 12.7 38 9.1 E 17 20 9 11 - - 0.0
19/03:50pm 27.6 25.0 12.0 38 9.1 E 17 24 9 13 - - 0.0
19/03:40pm 27.7 24.4 11.5 36 9.4 E 20 24 11 13 - - 0.0
19/03:30pm 27.5 24.7 11.5 37 9.3 ENE 17 22 9 12 - - 0.0
19/03:20pm 27.8 25.1 11.7 36 9.4 ENE 17 22 9 12 - - 0.0
19/03:10pm 28.0 25.6 11.3 35 9.7 ENE 15 20 8 11 - - 0.0
19/03:00pm 27.8 25.7 11.0 35 9.7 ENE 13 17 7 9 - - 0.0
19/02:50pm 27.4 25.6 12.0 38 9.0 E 13 19 7 10 - - 0.0
19/02:40pm 27.6 25.5 12.3 38 9.0 E 15 20 8 11 - - 0.0
19/02:30pm 27.8 25.4 11.5 36 9.5 E 15 19 8 10 - - 0.0
19/02:20pm 27.8 25.2 12.0 37 9.2 E 17 22 9 12 - - 0.0
19/02:10pm 27.7 24.5 11.1 35 9.6 E 19 26 10 14 - - 0.0
19/02:00pm 27.9 25.5 11.4 35 9.6 E 15 20 8 11 - - 0.0
19/01:50pm 27.7 26.2 10.7 34 9.7 E 9 19 5 10 - - 0.0
19/01:40pm 27.1 24.6 11.1 36 9.2 ESE 15 22 8 12 - - 0.0
19/01:30pm 26.9 24.8 11.3 37 9.0 ESE 13 20 7 11 - - 0.0
19/01:20pm 26.6 23.9 10.4 36 9.2 ESE 15 20 8 11 - - 0.0
19/01:10pm 26.7 24.5 12.2 40 8.5 ESE 15 20 8 11 - - 0.0
19/01:00pm 26.8 24.2 12.0 39 8.6 SE 17 19 9 10 - - 0.0
19/12:50pm 26.1 24.2 12.9 44 7.8 SE 15 20 8 11 - - 0.0
19/12:40pm 25.7 23.8 11.9 42 8.0 ESE 13 19 7 10 - - 0.0
19/12:30pm 25.7 23.1 12.1 42 7.9 SE 17 20 9 11 - - 0.0
19/12:20pm 25.8 23.9 13.1 45 7.5 SE 15 22 8 12 - - 0.0
19/12:10pm 25.3 23.3 12.6 45 7.4 ESE 15 17 8 9 - - 0.0
19/12:00pm 25.2 22.9 11.6 42 7.8 ESE 15 19 8 10 - - 0.0
19/11:50am 24.4 22.7 12.5 47 6.9 SE 13 19 7 10 - - 0.0
19/11:40am 24.0 22.1 13.0 50 6.4 SE 15 19 8 10 - - 0.0
19/11:30am 24.0 21.7 11.7 46 7.0 SE 15 19 8 10 - - 0.0
19/11:20am 23.9 20.8 11.6 46 7.0 SE 19 22 10 12 - - 0.0
19/11:10am 23.9 20.4 11.0 44 7.3 ESE 20 24 11 13 - - 0.0
19/11:00am 23.8 20.4 11.1 44 7.2 ESE 20 24 11 13 - - 0.0
19/10:50am 23.7 20.0 11.5 46 6.9 SE 22 28 12 15 - - 0.0
19/10:40am 23.6 19.0 11.0 45 7.1 SE 26 30 14 16 - - 0.0
19/10:30am 23.2 19.7 11.0 46 6.9 SE 20 28 11 15 - - 0.0
19/10:20am 22.4 20.9 13.1 55 5.4 SSE 13 15 7 8 - - 0.0
19/10:10am 22.5 21.2 12.4 52 5.8 S 11 15 6 8 - - 0.0
19/10:00am 22.8 21.2 12.9 53 5.7 S 13 17 7 9 - - 0.4
19/09:50am 23.3 22.1 13.9 55 5.6 S 13 17 7 9 - - 0.4
19/09:40am 23.2 21.6 12.7 51 6.1 SSE 13 19 7 10 - - 0.4
19/09:30am 23.1 21.3 12.2 50 6.3 SE 13 22 7 12 - - 0.4
19/09:20am 22.4 19.7 11.7 50 6.1 ESE 17 20 9 11 - - 0.4
19/09:10am 22.4 19.8 11.9 51 6.0 ESE 17 20 9 11 - - 0.4
19/09:00am 22.8 20.5 11.9 50 6.2 ESE 15 19 8 10 - - 0.4
19/08:50am 22.6 20.4 12.2 51 6.0 ESE 15 20 8 11 - - 0.4
19/08:40am 22.5 21.1 13.4 56 5.3 SE 13 17 7 9 - - 0.4
19/08:30am 21.8 20.6 12.7 56 5.2 SE 11 15 6 8 - - 0.4
19/08:20am 21.3 20.2 13.2 60 4.7 SE 11 15 6 8 - - 0.4
19/08:10am 21.2 20.9 13.4 61 4.5 SSE 7 11 4 6 - - 0.4
19/08:00am 21.1 20.5 13.4 61 4.5 SE 9 11 5 6 - - 0.4
19/07:50am 20.9 20.5 14.0 64 4.0 SE 9 13 5 7 - - 0.4
19/07:40am 20.7 20.4 13.2 62 4.3 SSE 7 11 4 6 - - 0.4
19/07:30am 20.5 20.2 13.4 63 4.1 SE 7 11 4 6 - - 0.4
19/07:20am 20.4 20.2 13.7 65 3.9 SE 7 7 4 4 - - 0.4
19/07:10am 20.5 19.3 12.7 61 4.5 SE 11 15 6 8 - - 0.4
19/07:00am 20.6 18.4 12.1 58 4.8 ESE 15 19 8 10 - - 0.4
19/06:50am 20.7 17.7 12.0 57 4.9 ESE 19 22 10 12 - - 0.4
19/06:40am 20.6 18.1 12.2 58 4.8 ESE 17 19 9 10 - - 0.4
19/06:30am 20.5 18.8 12.3 59 4.7 ESE 13 15 7 8 - - 0.4
19/06:20am 20.1 18.8 12.5 61 4.3 E 11 15 6 8 - - 0.4
19/06:10am 19.1 19.9 14.8 76 2.5 E 4 7 2 4 - - 0.4
19/06:00am 19.0 20.0 15.4 79 2.1 SSE 4 6 2 3 - - 0.4
19/05:50am 19.2 19.9 15.6 79 2.2 SE 6 6 3 3 - - 0.4
19/05:40am 19.4 20.4 15.3 77 2.4 SSE 4 6 2 3 - - 0.4
19/05:30am 19.8 20.4 15.3 75 2.7 SSE 6 6 3 3 - - 0.4
19/05:20am 20.2 20.7 14.9 71 3.1 S 6 7 3 4 - - 0.4
19/05:10am 20.8 20.7 14.9 69 3.5 ESE 9 9 5 5 - - 0.4
19/05:00am 21.0 20.7 14.4 66 3.9 E 9 9 5 5 - - 0.4
19/04:50am 21.0 21.2 14.3 65 4.0 ENE 6 9 3 5 - - 0.4
19/04:40am 20.8 21.0 14.2 66 3.9 ENE 6 7 3 4 - - 0.4
19/04:30am 20.8 21.9 14.5 67 3.7 NNE 2 4 1 2 - - 0.4
19/04:20am 21.0 21.2 14.3 65 4.0 NNE 6 7 3 4 - - 0.4
19/04:10am 21.0 21.2 14.3 65 4.0 NE 6 6 3 3 - - 0.4
19/04:00am 20.9 20.9 14.3 66 3.9 ENE 7 11 4 6 - - 0.4
19/03:50am 20.8 21.2 14.7 68 3.6 ESE 6 7 3 4 - - 0.4
19/03:40am 21.1 22.0 15.1 68 3.6 E 4 7 2 4 - - 0.4
19/03:30am 21.3 22.1 14.7 66 3.9 E 4 7 2 4 - - 0.4
19/03:20am 21.4 21.4 14.1 63 4.3 ENE 7 11 4 6 - - 0.4
19/03:10am 21.5 21.1 14.1 62 4.4 ENE 9 13 5 7 - - 0.4
19/03:00am 21.5 21.2 14.3 63 4.3 E 9 13 5 7 - - 0.4
19/02:50am 21.7 20.9 14.1 62 4.5 ENE 11 15 6 8 - - 0.4
19/02:40am 21.7 21.9 14.3 62 4.4 NE 6 11 3 6 - - 0.4
19/02:30am 21.6 21.6 14.2 62 4.4 ENE 7 11 4 6 - - 0.4
19/02:20am 21.6 21.2 14.1 62 4.4 ENE 9 13 5 7 - - 0.4
19/02:10am 21.4 21.1 14.3 64 4.2 E 9 11 5 6 - - 0.4
19/02:00am 21.3 21.4 14.5 65 4.0 E 7 11 4 6 - - 0.4
19/01:50am 21.2 21.5 14.6 66 3.9 ENE 6 9 3 5 - - 0.4
19/01:40am 21.0 21.7 14.6 67 3.8 ENE 4 6 2 3 - - 0.4
19/01:30am 21.0 21.2 14.7 67 3.7 E 7 11 4 6 - - 0.4
19/01:20am 21.1 20.9 14.7 67 3.8 E 9 11 5 6 - - 0.4
19/01:10am 21.1 21.3 14.7 67 3.8 - 7 11 4 6 - - 0.4
19/01:00am 21.2 21.8 15.2 68 3.6 E 6 6 3 3 - - 0.4
19/12:50am 21.4 22.3 15.2 67 3.7 ENE 4 6 2 3 - - 0.4
19/12:40am 21.5 22.9 15.3 68 3.7 ENE 2 4 1 2 - - 0.4
19/12:30am 21.6 22.1 14.9 65 4.0 NE 6 9 3 5 - - 0.4
19/12:20am 21.6 22.1 15.1 66 3.9 ENE 6 7 3 4 - - 0.4
19/12:10am 21.7 22.7 15.4 67 3.8 E 4 7 2 4 - - 0.4
19/12:00am 21.7 22.3 15.9 69 3.5 ENE 7 9 4 5 - - 0.4
 
Date/Time
EDT
Temp
°C
App
Temp
°C
Dew
Point
°C
Rel
Hum
%
Delta-T
°C
Wind Press
QNH
hPa
Press
MSL
hPa
Rain since
9am
mm
Dir  Spd
km/h
Gust
km/h
Spd
kts
Gust
kts
18/11:50pm 21.8 22.1 15.9 69 3.6 E 9 9 5 5 - - 0.4
18/11:40pm 22.0 22.1 15.6 67 3.9 E 9 13 5 7 - - 0.4
18/11:30pm 22.0 22.8 15.9 68 3.7 E 6 9 3 5 - - 0.4
18/11:20pm 22.0 22.9 16.1 69 3.6 E 6 7 3 4 - - 0.4
18/11:10pm 22.0 23.4 16.3 70 3.5 NE 4 6 2 3 - - 0.4
18/11:00pm 22.0 22.9 16.0 68 3.7 NNE 6 7 3 4 - - 0.4
18/10:50pm 21.9 22.8 16.6 72 3.3 E 7 9 4 5 - - 0.4
18/10:40pm 21.8 22.9 16.7 73 3.1 E 6 6 3 3 - - 0.4
18/10:30pm 21.9 24.1 17.4 75 2.8 E 2 4 1 2 - - 0.4
18/10:20pm 21.7 23.7 16.9 74 3.0 E 2 4 1 2 - - 0.4
18/10:10pm 21.7 23.7 17.0 74 2.9 SE 2 4 1 2 - - 0.4
18/10:00pm 22.2 24.1 17.7 75 2.8 NNW 4 6 2 3 - - 0.4
18/09:50pm 22.5 24.0 16.7 69 3.6 ENE 4 7 2 4 - - 0.4
18/09:40pm 22.6 24.3 17.1 71 3.4 ENE 4 6 2 3 - - 0.4
18/09:30pm 22.7 24.0 17.0 70 3.5 NNE 6 7 3 4 - - 0.4
18/09:20pm 22.8 24.1 17.1 70 3.5 N 6 7 3 4 - - 0.4
18/09:10pm 22.7 24.4 17.1 70 3.5 N 4 6 2 3 - - 0.4
18/09:00pm 22.7 24.0 17.0 70 3.5 NNE 6 7 3 4 - - 0.4
18/08:50pm 23.0 24.3 17.2 70 3.6 NNW 6 6 3 3 - - 0.4
18/08:40pm 23.0 25.1 17.2 70 3.6 SE 2 4 1 2 - - 0.4
18/08:30pm 23.1 25.1 16.9 68 3.8 ESE 2 4 1 2 - - 0.4
18/08:20pm 23.6 25.0 17.3 67 3.9 E 6 9 3 5 - - 0.4
18/08:10pm 23.8 25.1 17.0 65 4.2 NE 6 9 3 5 - - 0.4
18/08:00pm 24.0 25.7 17.2 65 4.3 ENE 4 7 2 4 - - 0.4
18/07:50pm 24.2 25.7 17.5 66 4.2 NE 6 9 3 5 - - 0.4
18/07:40pm 24.4 25.7 17.5 65 4.3 NNE 7 13 4 7 - - 0.4
18/07:30pm 24.7 25.3 17.6 64 4.5 NNE 11 15 6 8 - - 0.4
18/07:20pm 25.0 25.8 18.1 65 4.4 NNE 11 15 6 8 - - 0.4
18/07:10pm 25.3 25.7 18.2 64 4.5 NNE 13 15 7 8 - - 0.4
18/07:00pm 25.7 26.1 18.2 63 4.8 NNE 13 17 7 9 - - 0.4
18/06:50pm 26.1 25.4 18.3 62 5.0 NNE 19 20 10 11 - - 0.4
18/06:40pm 27.2 27.7 18.3 58 5.7 N 13 17 7 9 - - 0.4
18/06:30pm 27.4 28.0 18.5 58 5.7 N 13 15 7 8 - - 0.4
18/06:20pm 28.1 29.2 18.8 57 6.0 N 11 13 6 7 - - 0.4
18/06:10pm 28.8 30.5 18.6 54 6.6 NNE 7 11 4 6 - - 0.4
18/06:00pm 29.5 30.4 18.3 51 7.3 NNE 11 17 6 9 - - 0.4
18/05:50pm 29.4 31.1 18.5 52 7.1 NE 7 11 4 6 - - 0.4
18/05:40pm 29.2 30.8 16.9 47 7.8 NNW 4 6 2 3 - - 0.4
18/05:30pm 29.4 30.9 16.6 46 8.1 SW 4 6 2 3 - - 0.4
18/05:20pm 29.8 32.2 18.7 51 7.2 S 4 6 2 3 - - 0.4
18/05:10pm 29.4 31.3 16.6 46 8.1 WNW 2 4 1 2 - - 0.4
18/05:00pm 29.4 31.3 16.7 46 8.0 W 2 4 1 2 - - 0.4
18/04:50pm 28.9 30.6 16.1 46 8.0 NNW 2 4 1 2 - - 0.4
18/04:40pm 28.7 30.2 16.6 48 7.6 N 4 7 2 4 - - 0.4
18/04:30pm 29.0 30.8 17.4 49 7.4 NW 4 6 2 3 - - 0.4
18/04:20pm 29.2 31.0 17.5 49 7.5 WSW 4 6 2 3 - - 0.4
18/04:10pm 29.3 30.4 16.7 46 8.0 W 6 7 3 4 - - 0.4
18/04:00pm 29.5 30.8 17.1 47 7.9 WSW 6 9 3 5 - - 0.4
18/03:50pm 29.1 30.7 16.8 47 7.8 W 4 6 2 3 - - 0.4
18/03:40pm 28.9 30.5 16.9 48 7.6 NE 4 7 2 4 - - 0.4
18/03:30pm 28.9 30.2 17.1 49 7.5 NW 6 7 3 4 - - 0.4
18/03:20pm 28.9 30.2 17.2 49 7.4 WNW 6 7 3 4 - - 0.4
18/03:10pm 29.0 30.8 18.4 52 6.9 NNE 6 7 3 4 - - 0.4
18/03:00pm 28.9 31.3 18.8 54 6.6 S 4 4 2 2 - - 0.4
18/02:50pm 28.6 30.5 17.7 51 7.0 NNW 4 6 2 3 - - 0.4
18/02:40pm 28.0 30.1 18.1 55 6.4 ENE 4 6 2 3 - - 0.4
18/02:30pm 27.9 30.0 18.0 55 6.4 W 4 7 2 4 - - 0.4
18/02:20pm 27.3 29.1 18.8 59 5.5 W 7 9 4 5 - - 0.4
18/02:10pm 27.4 29.7 18.5 58 5.7 SW 4 6 2 3 - - 0.4
18/02:00pm 27.2 29.9 19.4 62 5.1 W 4 7 2 4 - - 0.4
18/01:50pm 26.8 28.9 18.1 59 5.6 WNW 4 6 2 3 - - 0.4
18/01:40pm 26.3 28.3 18.7 63 4.9 NNW 6 9 3 5 - - 0.4
18/01:30pm 26.0 28.2 18.4 63 4.9 NW 4 6 2 3 - - 0.4
18/01:20pm 26.0 28.4 19.7 68 4.1 NW 6 7 3 4 - - 0.4
18/01:10pm 25.4 28.0 19.3 69 4.0 NNW 4 6 2 3 - - 0.4
18/01:00pm 25.6 28.5 19.8 70 3.8 NE 4 6 2 3 - - 0.4
18/12:50pm 25.2 27.5 18.5 66 4.3 WNW 4 6 2 3 - - 0.4
18/12:40pm 25.0 27.8 19.6 72 3.5 N 4 7 2 4 - - 0.4
18/12:30pm 24.2 26.9 18.6 71 3.6 W 2 4 1 2 - - 0.4
18/12:20pm 23.7 26.1 18.7 73 3.2 SSW 4 6 2 3 - - 0.4
18/12:10pm 23.3 25.6 18.6 75 3.0 SW 4 4 2 2 - - 0.4
18/12:00pm 23.2 26.0 19.7 81 2.3 S 4 6 2 3 - - 0.4
18/11:50am 22.9 25.9 19.2 79 2.4 SE 2 2 1 1 - - 0.4
18/11:40am 22.2 25.4 18.8 81 2.2 CALM 0 2 0 1 - - 0.4
18/11:30am 21.7 24.4 18.6 82 2.0 SSE 2 2 1 1 - - 0.4
18/11:20am 21.4 24.2 18.9 86 1.6 SSE 2 2 1 1 - - 0.4
18/11:10am 21.1 23.9 18.8 87 1.5 S 2 4 1 2 - - 0.4
18/11:00am 21.0 23.5 19.0 88 1.3 ESE 4 4 2 2 - - 0.4
18/10:50am 20.9 23.9 19.3 90 1.0 SE 2 4 1 2 - - 0.4
18/10:40am 20.7 23.7 19.2 91 1.0 SE 2 2 1 1 - - 0.4
18/10:30am 20.4 23.0 19.2 93 0.8 N 4 4 2 2 - - 0.4
18/10:20am 20.3 22.8 19.0 92 0.8 NE 4 4 2 2 - - 0.2
18/10:10am 20.3 22.8 19.1 93 0.8 N 4 6 2 3 - - 0.2
18/10:00am 20.5 22.5 19.2 92 0.8 N 7 9 4 5 - - 0.8
18/09:50am 20.6 22.3 19.3 92 0.8 N 9 11 5 6 - - 0.8
18/09:40am 20.8 22.2 18.7 88 1.3 N 9 11 5 6 - - 0.8
18/09:30am 21.0 22.9 18.9 88 1.3 N 7 9 4 5 - - 0.8
18/09:20am 21.0 22.5 18.9 88 1.3 NNW 9 11 5 6 - - 0.8
18/09:10am 21.1 22.8 18.5 85 1.6 NNW 7 11 4 6 - - 0.8
18/09:00am 21.2 23.2 18.7 86 1.6 NNW 6 7 3 4 - - 0.8
18/08:50am 21.2 22.9 18.5 84 1.7 N 7 7 4 4 - - 0.8
18/08:40am 21.2 23.1 18.9 87 1.5 NNW 7 7 4 4 - - 0.8
18/08:30am 21.2 23.4 19.2 88 1.3 N 6 7 3 4 - - 0.8
18/08:20am 21.1 24.0 19.0 88 1.3 NW 2 4 1 2 - - 0.8
18/08:10am 21.1 24.0 19.1 88 1.3 NW 2 4 1 2 - - 0.8
18/08:00am 21.1 23.7 18.5 85 1.6 SW 2 2 1 1 - - 0.8
18/07:50am 21.0 23.6 18.3 84 1.7 SW 2 2 1 1 - - 0.8
18/07:40am 20.9 23.9 18.4 85 1.6 CALM 0 0 0 0 - - 0.8
18/07:30am 20.5 23.4 18.2 87 1.4 CALM 0 2 0 1 - - 0.8
18/07:20am 20.2 22.8 18.3 89 1.2 E 2 2 1 1 - - 0.8
18/07:10am 19.9 22.8 18.3 90 1.0 CALM 0 2 0 1 - - 0.8
18/07:00am 19.8 22.8 18.4 92 0.9 CALM 0 2 0 1 - - 0.8
18/06:50am 19.6 22.2 18.4 93 0.8 WSW 2 6 1 3 - - 0.8
18/06:40am 19.5 21.7 18.4 93 0.7 SW 4 4 2 2 - - 0.8
18/06:30am 19.6 22.2 18.3 92 0.8 S 2 2 1 1 - - 0.8
18/06:20am 19.6 22.5 18.1 91 0.9 CALM 0 2 0 1 - - 0.8
18/06:10am 19.6 22.5 18.2 92 0.9 CALM 0 2 0 1 - - 0.8
18/06:00am 19.6 22.1 18.2 92 0.9 SSW 2 2 1 1 - - 0.8
18/05:50am 19.6 22.1 18.2 92 0.9 SW 2 2 1 1 - - 0.8
18/05:40am 19.8 22.7 18.3 91 0.9 CALM 0 2 0 1 - - 0.8
18/05:30am 19.8 22.7 18.2 90 1.0 CALM 0 2 0 1 - - 0.8
18/05:20am 19.9 22.5 18.3 90 1.0 NNE 2 2 1 1 - - 0.8
18/05:10am 19.9 22.3 18.0 89 1.2 SE 2 4 1 2 - - 0.8
18/05:00am 20.0 22.6 18.3 90 1.1 SSW 2 4 1 2 - - 0.8
18/04:50am 20.0 22.5 18.1 89 1.2 WSW 2 2 1 1 - - 0.8
18/04:40am 20.0 22.5 18.1 89 1.2 SSW 2 4 1 2 - - 0.8
18/04:30am 20.2 22.3 18.1 88 1.3 SSW 4 4 2 2 - - 0.8
18/04:20am 20.3 22.3 17.8 85 1.6 S 4 4 2 2 - - 0.8
18/04:10am 20.5 22.1 17.8 84 1.7 SSE 6 7 3 4 - - 0.8
18/04:00am 20.6 22.0 17.8 84 1.7 SE 7 7 4 4 - - 0.8
18/03:50am 20.7 22.2 17.6 82 1.9 SE 6 9 3 5 - - 0.8
18/03:40am 20.6 22.1 17.7 83 1.8 SSE 6 7 3 4 - - 0.8
18/03:30am 20.7 22.0 17.6 82 1.9 SSE 7 11 4 6 - - 0.8
18/03:20am 20.6 22.2 17.8 84 1.7 SE 6 7 3 4 - - 0.8
18/03:10am 20.6 22.9 17.8 84 1.7 S 2 4 1 2 - - 0.8
18/03:00am 20.5 22.7 17.4 82 1.9 SE 2 4 1 2 - - 0.8
18/02:50am 20.5 22.3 17.5 83 1.9 SSE 4 6 2 3 - - 0.8
18/02:40am 20.4 22.3 17.6 84 1.7 S 4 6 2 3 - - 0.8
18/02:30am 20.5 22.9 17.9 85 1.6 SW 2 2 1 1 - - 0.8
18/02:20am 20.5 22.3 17.5 83 1.9 SE 4 7 2 4 - - 0.8
18/02:10am 20.7 21.6 17.6 82 1.9 SE 9 9 5 5 - - 0.8
18/02:00am 20.9 20.9 17.1 79 2.3 ESE 13 13 7 7 - - 0.8
18/01:50am 21.1 21.1 17.3 79 2.4 SE 13 15 7 8 - - 0.8
18/01:40am 21.1 21.9 17.4 79 2.3 SE 9 13 5 7 - - 0.8
18/01:30am 21.1 22.4 17.6 80 2.2 ESE 7 11 4 6 - - 0.8
18/01:20am 21.3 22.6 17.6 79 2.3 SE 7 9 4 5 - - 0.8
18/01:10am 21.4 22.1 17.0 76 2.7 S 9 13 5 7 - - 0.8
18/01:00am 21.1 21.9 17.4 79 2.3 SW 9 13 5 7 - - 0.8
18/12:50am 20.8 23.3 19.1 90 1.1 S 4 6 2 3 - - 0.8
18/12:40am 20.9 24.1 19.8 93 0.7 ENE 2 4 1 2 - - 0.8
18/12:30am 21.1 24.1 20.1 94 0.6 NNW 4 6 2 3 - - 0.8
18/12:20am 21.0 24.1 19.4 90 1.0 NW 2 4 1 2 - - 0.8
18/12:10am 20.9 23.9 19.2 90 1.1 ESE 2 4 1 2 - - 0.6
18/12:00am 20.8 23.0 19.6 93 0.8 SE 7 7 4 4 - - 0.6
 
Date/Time
EDT
Temp
°C
App
Temp
°C
Dew
Point
°C
Rel
Hum
%
Delta-T
°C
Wind Press
QNH
hPa
Press
MSL
hPa
Rain since
9am
mm
Dir  Spd
km/h
Gust
km/h
Spd
kts
Gust
kts
17/11:50pm 20.8 23.7 19.9 95 0.6 SSE 4 6 2 3 - - 0.6
17/11:40pm 20.8 23.6 19.7 93 0.7 ESE 4 4 2 2 - - 0.6
17/11:30pm 20.9 23.9 20.0 95 0.6 ENE 4 6 2 3 - - 0.6
17/11:20pm 20.9 23.9 20.1 95 0.5 N 4 6 2 3 - - 0.6
17/11:10pm 20.8 24.1 20.0 95 0.5 SSE 2 2 1 1 - - 0.6
17/11:00pm 20.9 24.7 20.1 95 0.5 CALM 0 2 0 1 - - 0.6
17/10:50pm 20.9 24.2 20.0 95 0.6 N 2 2 1 1 - - 0.6
17/10:40pm 20.9 24.3 20.1 95 0.5 NNE 2 4 1 2 - - 0.6
17/10:30pm 21.0 23.7 20.2 95 0.5 N 6 7 3 4 - - 0.6
17/10:20pm 21.1 23.8 20.3 95 0.5 N 6 6 3 3 - - 0.6
17/10:10pm 21.1 24.4 19.9 93 0.8 NNE 2 4 1 2 - - 0.6
17/10:00pm 21.1 24.6 20.3 95 0.5 N 2 4 1 2 - - 0.6
17/09:50pm 21.1 23.7 20.0 93 0.7 NE 6 7 3 4 - - 0.6
17/09:40pm 21.2 24.3 20.3 95 0.6 N 4 6 2 3 - - 0.6
17/09:30pm 21.2 24.3 20.3 95 0.6 W 4 6 2 3 - - 0.6
17/09:20pm 21.2 24.1 19.8 92 0.9 NNW 4 6 2 3 - - 0.6
17/09:10pm 21.1 24.2 19.4 90 1.1 E 2 4 1 2 - - 0.6
17/09:00pm 21.1 23.3 19.6 91 1.0 S 7 9 4 5 - - 0.6
17/08:50pm 21.3 24.3 20.0 92 0.8 SSW 4 7 2 4 - - 0.6
17/08:40pm 21.4 24.3 19.9 91 1.0 SSE 4 4 2 2 - - 0.6
17/08:30pm 21.6 24.7 19.6 88 1.3 ESE 2 4 1 2 - - 0.6
17/08:20pm 21.8 24.6 19.6 87 1.4 E 4 6 2 3 - - 0.6
17/08:10pm 21.9 24.4 19.1 84 1.8 E 4 6 2 3 - - 0.6
17/08:00pm 22.0 25.4 20.1 89 1.2 ESE 2 4 1 2 - - 0.6
17/07:50pm 22.2 25.6 20.2 88 1.3 SSE 2 4 1 2 - - 0.6
17/07:40pm 22.6 26.0 20.2 86 1.6 WSW 2 2 1 1 - - 0.4
17/07:30pm 23.0 26.5 20.4 85 1.7 NNW 2 4 1 2 - - 0.4
17/07:20pm 23.4 26.5 19.6 79 2.5 ENE 2 2 1 1 - - 0.2
17/07:10pm 23.7 26.6 19.1 75 3.0 E 2 4 1 2 - - 0.0
17/07:00pm 23.9 26.7 18.9 73 3.2 N 2 4 1 2 - - 0.0
17/06:50pm 24.1 26.0 18.5 71 3.6 N 6 7 3 4 - - 0.0
17/06:40pm 24.5 26.6 19.4 73 3.3 N 7 7 4 4 - - 0.0
17/06:30pm 24.9 26.3 17.8 64 4.5 N 7 7 4 4 - - 0.0
17/06:20pm 25.2 26.8 17.9 64 4.6 N 6 6 3 3 - - 0.0
17/06:10pm 25.4 27.2 17.4 61 5.0 NW 4 6 2 3 - - 0.0
17/06:00pm 25.7 27.4 17.1 59 5.4 WNW 4 6 2 3 - - 0.0
17/05:50pm 26.1 27.7 16.9 57 5.8 NW 4 6 2 3 - - 0.0
17/05:40pm 26.4 28.0 16.8 55 6.0 NW 4 6 2 3 - - 0.0
17/05:30pm 26.5 28.0 16.7 55 6.1 WSW 4 6 2 3 - - 0.0
17/05:20pm 26.6 28.6 17.8 58 5.6 WSW 4 7 2 4 - - 0.0
17/05:10pm 26.4 28.0 16.9 56 6.0 WNW 4 6 2 3 - - 0.0
17/05:00pm 25.9 27.3 16.5 56 5.9 NW 4 6 2 3 - - 0.0
17/04:50pm 25.7 27.0 17.1 59 5.4 NW 6 7 3 4 - - 0.0
17/04:40pm 25.5 26.6 16.7 58 5.5 NW 6 7 3 4 - - 0.0
17/04:30pm 25.6 27.0 16.5 57 5.7 W 4 6 2 3 - - 0.0
17/04:20pm 25.6 26.9 17.0 59 5.4 W 6 7 3 4 - - 0.0
17/04:10pm 25.6 27.1 16.6 57 5.6 W 4 6 2 3 - - 0.0
17/04:00pm 25.3 26.7 16.4 57 5.5 W 4 7 2 4 - - 0.0
17/03:50pm 25.0 25.5 16.6 59 5.2 W 9 13 5 7 - - 0.0
17/03:40pm 25.2 25.5 17.0 60 5.1 WSW 11 15 6 8 - - 0.0
17/03:30pm 25.6 25.5 17.0 59 5.4 WSW 13 19 7 10 - - 0.0
17/03:20pm 26.0 25.1 16.8 57 5.8 SW 17 20 9 11 - - 0.0
17/03:10pm 26.4 25.9 17.0 56 5.9 SW 15 19 8 10 - - 0.0
17/03:00pm 26.7 27.4 17.1 55 6.1 WSW 9 11 5 6 - - 0.0
17/02:50pm 26.7 27.5 17.2 56 6.0 W 9 13 5 7 - - 0.0
17/02:40pm 26.9 27.8 16.6 53 6.5 W 7 13 4 7 - - 0.0
17/02:30pm 27.1 29.2 18.2 58 5.7 W 4 6 2 3 - - 0.0
17/02:20pm 27.3 29.2 17.6 55 6.2 SW 4 4 2 2 - - 0.0
17/02:10pm 27.5 29.5 17.9 55 6.1 SW 4 4 2 2 - - 0.0
17/02:00pm 28.0 30.0 17.9 54 6.5 SSE 4 7 2 4 - - 0.0
17/01:50pm 29.0 31.4 18.0 51 7.1 E 2 6 1 3 - - 0.0
17/01:40pm 28.8 30.8 17.0 49 7.5 WSW 2 4 1 2 - - 0.0
17/01:30pm 28.2 30.3 17.3 51 6.9 SE 2 4 1 2 - - 0.0
17/01:20pm 28.3 30.5 17.5 52 6.9 S 2 4 1 2 - - 0.0
17/01:10pm 28.0 30.0 16.9 51 7.0 W 2 4 1 2 - - 0.0
17/01:00pm 27.6 29.7 18.0 55 6.2 W 4 6 2 3 - - 0.0

Other formats

Comma delimited format used in spreadsheet applications
http://www.bom.gov.au/fwo/IDN60801/IDN60801.99072.axf

JavaScript Object Notation format (JSON) in row-major order
http://www.bom.gov.au/fwo/IDN60801/IDN60801.99072.json

Data quality

Most of these data are generated automatically and are frequently updated. Quality checks on data are not normally performed. It is possible for incorrect values to appear. Refer to information at About Latest Weather Observations and please check the disclaimer before using these data.